Time;durP1;ratioP1;P1;durP2;ratioP2;P2;SDS_P1;SDS_P2;PMS_P1;PMS_P2;Temp;Humidity;BMP_temperature;BMP_pressure;BME280_temperature;BME280_humidity;BME280_pressure;Samples;Min_cycle;Max_cycle;Signal;HPM_P1;HPM_P2
2022/11/10 00:01:05;;;;;;;;;;;11.10;99.90;;;;;;5005984;28;20254;-74
2022/11/10 00:03:50;;;;;;;;;;;11.00;99.90;;;;;;5007299;28;19940;-74
2022/11/10 00:06:35;;;;;;;;;;;11.00;99.90;;;;;;5008654;28;20419;-74
2022/11/10 00:09:20;;;;;;;;;;;11.00;99.90;;;;;;5008597;28;20418;-73
2022/11/10 00:12:06;;;;;;;;;;;11.00;99.90;;;;;;5009747;28;19990;-74
2022/11/10 00:17:56;;;;;;;;;;;11.00;99.90;;;;;;5011443;28;20084;-74
2022/11/10 00:20:41;;;;;;;;;;;11.00;99.90;;;;;;5008292;28;20055;-74
2022/11/10 00:23:27;;;;;;;;;;;11.00;99.90;;;;;;5005565;28;19940;-74
2022/11/10 00:26:14;;;;;;;;;;;11.00;99.90;;;;;;5013107;28;20234;-74
2022/11/10 00:28:59;;;;;;;;;;;11.00;99.90;;;;;;5010815;28;20148;-74
2022/11/10 00:31:45;;;;;;;;;;;11.00;99.90;;;;;;5005652;28;20501;-74
2022/11/10 00:34:32;;;;;;;;;;;11.10;99.90;;;;;;5008094;28;20081;-74
2022/11/10 00:37:17;;;;;;;;;;;11.00;99.90;;;;;;5012099;28;19936;-74
2022/11/10 00:40:03;;;;;;;;;;;11.00;99.90;;;;;;5010615;28;19940;-73
2022/11/10 00:42:50;;;;;;;;;;;11.00;99.90;;;;;;5012425;28;20063;-73
2022/11/10 00:45:35;;;;;;;;;;;11.00;99.90;;;;;;5011505;28;19986;-74
2022/11/10 00:48:20;;;;;;;;;;;10.90;99.90;;;;;;5009255;28;20303;-73
2022/11/10 00:51:07;;;;;;;;;;;10.90;99.90;;;;;;5013941;28;19944;-74
2022/11/10 00:53:53;;;;;;;;;;;11.00;99.90;;;;;;5010623;28;19998;-74
2022/11/10 00:56:38;;;;;;;;;;;11.00;99.90;;;;;;5011142;28;19939;-74
2022/11/10 00:59:24;;;;;;;;;;;11.00;99.90;;;;;;5015543;28;20414;-74
2022/11/10 01:02:09;;;;;;;;;;;10.90;99.90;;;;;;5007749;28;19980;-74
2022/11/10 01:04:54;;;;;;;;;;;10.90;99.90;;;;;;5010666;28;19936;-74
2022/11/10 01:07:41;;;;;;;;;;;10.90;99.90;;;;;;5009089;28;19952;-74
2022/11/10 01:10:27;;;;;;;;;;;10.90;99.90;;;;;;5014056;28;19932;-72
2022/11/10 01:13:12;;;;;;;;;;;10.90;99.90;;;;;;5014859;28;19932;-74
2022/11/10 01:16:02;;;;;;;;;;;10.90;99.90;;;;;;5003707;28;19932;-74
2022/11/10 01:18:49;;;;;;;;;;;10.90;99.90;;;;;;5008229;28;19932;-74
2022/11/10 01:21:34;;;;;;;;;;;10.90;99.90;;;;;;5009995;28;20022;-74
2022/11/10 01:24:21;;;;;;;;;;;10.90;99.90;;;;;;5013069;28;20414;-76
2022/11/10 01:27:07;;;;;;;;;;;10.90;99.90;;;;;;5015272;28;19984;-73
2022/11/10 01:29:52;;;;;;;;;;;10.90;99.90;;;;;;5012966;28;19933;-73
2022/11/10 01:32:37;;;;;;;;;;;10.80;99.90;;;;;;5012070;28;19940;-73
2022/11/10 01:35:22;;;;;;;;;;;10.90;99.90;;;;;;5012366;28;19932;-73
2022/11/10 01:38:07;;;;;;;;;;;10.90;99.90;;;;;;5012740;28;20307;-73
2022/11/10 01:40:54;;;;;;;;;;;10.80;99.90;;;;;;5007279;28;19975;-73
2022/11/10 01:43:40;;;;;;;;;;;10.80;99.90;;;;;;5012194;28;19944;-73
2022/11/10 01:46:26;;;;;;;;;;;10.80;99.90;;;;;;5008387;28;19936;-73
2022/11/10 01:49:12;;;;;;;;;;;10.80;99.90;;;;;;5012945;28;19940;-74
2022/11/10 01:51:59;;;;;;;;;;;10.80;99.90;;;;;;5011961;28;19936;-73
2022/11/10 01:54:47;;;;;;;;;;;10.80;99.90;;;;;;5007898;28;20169;-73
2022/11/10 01:57:35;;;;;;;;;;;10.80;99.90;;;;;;5010699;28;19945;-76
2022/11/10 02:00:21;;;;;;;;;;;10.80;99.90;;;;;;5011904;28;19933;-75
2022/11/10 02:03:09;;;;;;;;;;;10.80;99.90;;;;;;5015596;28;19932;-75
2022/11/10 02:05:55;;;;;;;;;;;10.80;99.90;;;;;;5015290;28;19986;-75
2022/11/10 02:08:41;;;;;;;;;;;10.80;99.90;;;;;;5013937;28;19936;-75
2022/11/10 02:11:27;;;;;;;;;;;10.80;99.90;;;;;;5011352;28;19931;-75
2022/11/10 02:14:15;;;;;;;;;;;10.80;99.90;;;;;;5015500;28;19936;-78
2022/11/10 02:17:00;;;;;;;;;;;10.80;99.90;;;;;;5014712;28;19940;-74
2022/11/10 02:19:45;;;;;;;;;;;10.80;99.90;;;;;;5009415;28;20034;-74
2022/11/10 02:22:32;;;;;;;;;;;10.70;99.90;;;;;;5013547;28;20343;-75
2022/11/10 02:25:20;;;;;;;;;;;10.80;99.90;;;;;;5014144;28;19931;-78
2022/11/10 02:28:05;;;;;;;;;;;10.70;99.90;;;;;;5012809;28;19937;-74
2022/11/10 02:30:51;;;;;;;;;;;10.70;99.90;;;;;;5020623;28;19932;-73
2022/11/10 02:33:36;;;;;;;;;;;10.80;99.90;;;;;;5013692;28;19931;-76
2022/11/10 02:36:22;;;;;;;;;;;10.70;99.90;;;;;;5008063;28;20027;-74
2022/11/10 02:39:09;;;;;;;;;;;10.70;99.90;;;;;;5012769;28;19948;-74
2022/11/10 02:41:54;;;;;;;;;;;10.70;99.90;;;;;;5012897;28;19959;-74
2022/11/10 02:44:40;;;;;;;;;;;10.70;99.90;;;;;;5002270;28;20472;-72
2022/11/10 02:47:25;;;;;;;;;;;10.70;99.90;;;;;;5013201;28;20422;-72
2022/11/10 02:50:10;;;;;;;;;;;10.70;99.90;;;;;;5014287;28;19932;-73
2022/11/10 02:52:56;;;;;;;;;;;10.70;99.90;;;;;;5016915;28;20425;-72
2022/11/10 02:55:43;;;;;;;;;;;10.70;99.90;;;;;;5010880;28;19959;-73
2022/11/10 02:58:28;;;;;;;;;;;10.70;99.90;;;;;;5011051;28;19945;-72
2022/11/10 03:01:14;;;;;;;;;;;10.60;99.90;;;;;;5009346;28;19956;-73
2022/11/10 03:04:00;;;;;;;;;;;10.60;99.90;;;;;;5012226;28;20666;-73
2022/11/10 03:06:45;;;;;;;;;;;10.60;99.90;;;;;;5007661;28;20503;-72
2022/11/10 03:09:30;;;;;;;;;;;10.60;99.90;;;;;;5012720;28;19937;-73
2022/11/10 03:12:17;;;;;;;;;;;10.50;99.90;;;;;;5013413;28;19987;-73
2022/11/10 03:15:02;;;;;;;;;;;10.60;99.90;;;;;;5013629;28;19998;-73
2022/11/10 03:17:47;;;;;;;;;;;10.50;99.90;;;;;;5013890;28;19944;-73
2022/11/10 03:20:32;;;;;;;;;;;10.50;99.90;;;;;;5010827;28;19943;-73
2022/11/10 03:23:18;;;;;;;;;;;10.50;99.90;;;;;;5012427;28;19979;-72
2022/11/10 03:26:04;;;;;;;;;;;10.50;99.90;;;;;;5013715;28;19987;-73
2022/11/10 03:28:50;;;;;;;;;;;10.50;99.90;;;;;;5013228;28;19940;-73
2022/11/10 03:31:36;;;;;;;;;;;10.50;99.90;;;;;;5010587;28;19995;-73
2022/11/10 03:34:21;;;;;;;;;;;10.50;99.90;;;;;;5019045;28;19940;-73
2022/11/10 03:37:06;;;;;;;;;;;10.50;99.90;;;;;;5011656;28;20060;-72
2022/11/10 03:39:51;;;;;;;;;;;10.50;99.90;;;;;;5011038;28;20143;-72
2022/11/10 03:42:40;;;;;;;;;;;10.50;99.90;;;;;;5011362;28;19931;-73
2022/11/10 03:45:27;;;;;;;;;;;10.50;99.90;;;;;;5008025;28;19932;-73
2022/11/10 03:48:12;;;;;;;;;;;10.40;99.90;;;;;;5009044;28;20311;-72
2022/11/10 03:50:58;;;;;;;;;;;10.50;99.90;;;;;;5011709;28;19960;-72
2022/11/10 03:53:43;;;;;;;;;;;10.40;99.90;;;;;;5010911;28;20406;-73
2022/11/10 03:56:29;;;;;;;;;;;10.40;99.90;;;;;;5012796;28;19932;-72
2022/11/10 03:59:14;;;;;;;;;;;10.40;99.90;;;;;;5015561;28;19988;-73
2022/11/10 04:02:01;;;;;;;;;;;10.40;99.90;;;;;;5009592;28;19954;-72
2022/11/10 04:10:52;;;;;;;;;;;10.40;99.90;;;;;;5012240;28;19932;-73
2022/11/10 04:16:41;;;;;;;;;;;10.40;99.90;;;;;;5014777;28;20649;-73
2022/11/10 04:19:28;;;;;;;;;;;10.40;99.90;;;;;;5021294;28;19932;-72
2022/11/10 04:23:25;;;;;;;;;;;10.40;99.90;;;;;;5011810;28;19975;-72
2022/11/10 04:25:19;;;;;;;;;;;10.30;99.90;;;;;;5015405;28;19933;-73
2022/11/10 04:28:04;;;;;;;;;;;10.30;99.90;;;;;;5014582;28;20307;-73
2022/11/10 04:30:50;;;;;;;;;;;10.30;99.90;;;;;;5012899;28;19956;-73
2022/11/10 04:33:35;;;;;;;;;;;10.30;99.90;;;;;;5017832;28;20309;-73
2022/11/10 04:36:22;;;;;;;;;;;10.30;99.90;;;;;;5015249;28;19940;-73
2022/11/10 04:39:08;;;;;;;;;;;10.30;99.90;;;;;;5005349;28;20059;-73
2022/11/10 04:41:53;;;;;;;;;;;10.30;99.90;;;;;;5009388;28;19944;-72
2022/11/10 04:44:39;;;;;;;;;;;10.30;99.90;;;;;;5016584;28;19941;-73
2022/11/10 04:47:24;;;;;;;;;;;10.30;99.90;;;;;;5012105;28;19945;-72
2022/11/10 04:50:12;;;;;;;;;;;10.20;99.90;;;;;;5016583;28;19944;-72
2022/11/10 04:52:59;;;;;;;;;;;10.20;99.90;;;;;;5016887;28;19995;-73
2022/11/10 04:55:45;;;;;;;;;;;10.20;99.90;;;;;;5014903;28;20003;-73
2022/11/10 04:58:30;;;;;;;;;;;10.20;99.90;;;;;;5016366;28;20003;-72
2022/11/10 05:01:16;;;;;;;;;;;10.20;99.90;;;;;;5015873;28;19971;-72
2022/11/10 05:04:04;;;;;;;;;;;10.20;99.90;;;;;;5012793;28;19987;-73
2022/11/10 05:06:50;;;;;;;;;;;10.20;99.90;;;;;;5023381;28;19933;-72
2022/11/10 05:09:36;;;;;;;;;;;10.10;99.90;;;;;;5016359;28;19949;-73
2022/11/10 05:12:21;;;;;;;;;;;10.20;99.90;;;;;;5024277;28;20306;-72
2022/11/10 05:15:07;;;;;;;;;;;10.10;99.90;;;;;;5011938;28;20449;-72
2022/11/10 05:17:53;;;;;;;;;;;10.10;99.90;;;;;;5021479;28;20086;-73
2022/11/10 05:20:38;;;;;;;;;;;10.10;99.90;;;;;;5017457;28;19936;-74
2022/11/10 05:23:38;;;;;;;;;;;10.00;99.90;;;;;;5018655;28;19937;-72
2022/11/10 05:26:25;;;;;;;;;;;10.00;99.90;;;;;;5020214;28;19940;-71
2022/11/10 05:29:10;;;;;;;;;;;10.00;99.90;;;;;;5008753;28;20496;-72
2022/11/10 05:31:55;;;;;;;;;;;10.00;99.90;;;;;;5016148;28;19933;-72
2022/11/10 05:34:40;;;;;;;;;;;10.00;99.90;;;;;;5013676;28;19940;-73
2022/11/10 05:37:26;;;;;;;;;;;10.00;99.90;;;;;;5009876;28;19940;-76
2022/11/10 05:40:12;;;;;;;;;;;10.00;99.90;;;;;;5017188;28;20573;-74
2022/11/10 05:42:59;;;;;;;;;;;9.90;99.90;;;;;;5015258;28;19971;-71
2022/11/10 05:45:44;;;;;;;;;;;9.90;99.90;;;;;;5016040;28;19953;-75
2022/11/10 05:48:29;;;;;;;;;;;9.90;99.90;;;;;;5016827;28;20029;-71
2022/11/10 05:51:14;;;;;;;;;;;9.90;99.90;;;;;;5023764;28;20314;-71
2022/11/10 05:54:00;;;;;;;;;;;9.90;99.90;;;;;;5013040;28;19948;-70
2022/11/10 05:56:45;;;;;;;;;;;9.90;99.90;;;;;;5019121;28;19952;-70
2022/11/10 05:59:32;;;;;;;;;;;9.90;99.90;;;;;;5018743;28;20722;-71
2022/11/10 06:02:17;;;;;;;;;;;9.90;99.90;;;;;;5011555;28;19933;-71
2022/11/10 06:05:03;;;;;;;;;;;9.80;99.90;;;;;;5017825;28;20158;-71
2022/11/10 06:07:48;;;;;;;;;;;9.80;99.90;;;;;;5016014;28;19932;-71
2022/11/10 06:10:34;;;;;;;;;;;9.80;99.90;;;;;;5005267;28;19936;-71
2022/11/10 06:13:19;;;;;;;;;;;9.80;99.90;;;;;;5018474;28;20331;-75
2022/11/10 06:16:07;;;;;;;;;;;9.70;99.90;;;;;;5020325;28;19933;-72
2022/11/10 06:18:52;;;;;;;;;;;9.70;99.90;;;;;;5011252;28;19940;-72
2022/11/10 06:21:37;;;;;;;;;;;9.80;99.90;;;;;;5015128;28;19941;-74
2022/11/10 06:24:23;;;;;;;;;;;9.70;99.90;;;;;;5007963;28;20030;-71
2022/11/10 06:27:09;;;;;;;;;;;9.60;99.90;;;;;;5019489;28;19932;-71
2022/11/10 06:29:54;;;;;;;;;;;9.60;99.90;;;;;;5023153;28;20010;-71
2022/11/10 06:32:43;;;;;;;;;;;9.60;99.90;;;;;;5010252;28;19982;-71
2022/11/10 06:35:29;;;;;;;;;;;9.60;99.90;;;;;;5009105;28;19944;-72
2022/11/10 06:38:14;;;;;;;;;;;9.60;99.90;;;;;;5004129;28;19941;-74
2022/11/10 06:41:00;;;;;;;;;;;9.60;99.90;;;;;;5017957;28;20418;-77
2022/11/10 06:43:45;;;;;;;;;;;9.60;99.90;;;;;;5010590;28;20302;-71
2022/11/10 06:46:30;;;;;;;;;;;9.60;99.90;;;;;;5016736;28;20306;-71
2022/11/10 06:49:17;;;;;;;;;;;9.50;99.90;;;;;;5009209;28;20063;-72
2022/11/10 06:52:03;;;;;;;;;;;9.50;99.90;;;;;;5011903;28;19941;-71
2022/11/10 06:54:48;;;;;;;;;;;9.50;99.90;;;;;;5019592;28;19932;-71
2022/11/10 06:57:37;;;;;;;;;;;9.50;99.90;;;;;;5014179;28;19947;-70
2022/11/10 07:00:22;;;;;;;;;;;9.50;99.90;;;;;;5012714;28;20432;-71
2022/11/10 07:03:08;;;;;;;;;;;9.50;99.90;;;;;;5017500;28;20063;-71
2022/11/10 07:05:55;;;;;;;;;;;9.50;99.90;;;;;;5010126;28;19937;-71
2022/11/10 07:08:40;;;;;;;;;;;9.40;99.90;;;;;;5008532;28;20417;-71
2022/11/10 07:11:25;;;;;;;;;;;9.40;99.90;;;;;;5012307;28;19932;-70
2022/11/10 07:14:11;;;;;;;;;;;;;;;;;;5020375;28;19936;-71
2022/11/10 07:16:57;;;;;;;;;;;9.40;99.90;;;;;;5008777;28;19936;-71
2022/11/10 07:19:42;;;;;;;;;;;9.30;99.90;;;;;;5013912;28;19933;-71
2022/11/10 07:22:29;;;;;;;;;;;9.30;99.90;;;;;;5014716;28;21247;-71
2022/11/10 07:25:14;;;;;;;;;;;9.30;99.90;;;;;;5013395;28;19936;-71
2022/11/10 07:28:00;;;;;;;;;;;9.30;99.90;;;;;;5008722;28;19956;-71
2022/11/10 07:30:45;;;;;;;;;;;9.30;99.90;;;;;;5012076;28;20070;-71
2022/11/10 07:33:30;;;;;;;;;;;9.30;99.90;;;;;;5013615;28;20411;-71
2022/11/10 07:36:15;;;;;;;;;;;9.30;99.90;;;;;;5011222;28;19978;-70
2022/11/10 07:39:02;;;;;;;;;;;9.30;99.90;;;;;;5012457;28;20057;-71
2022/11/10 07:41:48;;;;;;;;;;;9.30;99.90;;;;;;5011106;28;21601;-71
2022/11/10 07:44:33;;;;;;;;;;;9.30;99.90;;;;;;5013443;28;19933;-70
2022/11/10 07:47:19;;;;;;;;;;;9.20;99.90;;;;;;5007691;28;20072;-71
2022/11/10 07:50:04;;;;;;;;;;;9.20;99.90;;;;;;5017672;28;19940;-71
2022/11/10 07:52:49;;;;;;;;;;;9.20;99.90;;;;;;5012793;28;19940;-70
2022/11/10 07:55:36;;;;;;;;;;;9.20;99.90;;;;;;5008650;28;20076;-71
2022/11/10 07:58:22;;;;;;;;;;;9.20;99.90;;;;;;5018765;28;20919;-71
2022/11/10 08:01:07;;;;;;;;;;;9.20;99.90;;;;;;5014664;28;20102;-71
2022/11/10 08:03:52;;;;;;;;;;;9.20;99.90;;;;;;5011493;28;19944;-80
2022/11/10 08:06:38;;;;;;;;;;;9.20;99.90;;;;;;5014788;28;20461;-71
2022/11/10 08:09:23;;;;;;;;;;;9.20;99.90;;;;;;5016105;28;19933;-74
2022/11/10 08:12:10;;;;;;;;;;;9.20;99.90;;;;;;5013584;28;20064;-71
2022/11/10 08:14:55;;;;;;;;;;;9.10;99.90;;;;;;5018025;28;20023;-70
2022/11/10 08:17:40;;;;;;;;;;;9.10;99.90;;;;;;5009507;28;19932;-71
2022/11/10 08:20:26;;;;;;;;;;;9.10;99.90;;;;;;5016779;28;20063;-71
2022/11/10 08:23:12;;;;;;;;;;;9.10;99.90;;;;;;5015052;28;20397;-71
2022/11/10 08:25:58;;;;;;;;;;;9.10;99.90;;;;;;5011886;28;20036;-71
2022/11/10 08:28:44;;;;;;;;;;;9.10;99.90;;;;;;5015671;28;19974;-70
2022/11/10 08:31:31;;;;;;;;;;;9.10;99.90;;;;;;5011518;28;20326;-71
2022/11/10 08:34:17;;;;;;;;;;;9.10;99.90;;;;;;5011452;28;19933;-71
2022/11/10 08:37:02;;;;;;;;;;;9.00;99.90;;;;;;5012997;28;20052;-69
2022/11/10 08:39:48;;;;;;;;;;;9.00;99.90;;;;;;5013092;28;20441;-70
2022/11/10 08:42:33;;;;;;;;;;;9.00;99.90;;;;;;5008749;28;19932;-71
2022/11/10 08:45:19;;;;;;;;;;;9.10;99.90;;;;;;5014180;28;20071;-70
2022/11/10 08:48:06;;;;;;;;;;;9.00;99.90;;;;;;5010825;28;19940;-71
2022/11/10 08:50:51;;;;;;;;;;;9.10;99.90;;;;;;5011157;28;20050;-71
2022/11/10 08:53:36;;;;;;;;;;;9.10;99.90;;;;;;5011691;28;19991;-71
2022/11/10 08:56:22;;;;;;;;;;;9.10;99.90;;;;;;5013913;28;19944;-71
2022/11/10 08:59:07;;;;;;;;;;;9.10;99.90;;;;;;5012829;28;19964;-71
2022/11/10 09:01:54;;;;;;;;;;;9.00;99.90;;;;;;5015506;28;19947;-71
2022/11/10 09:04:39;;;;;;;;;;;9.10;99.90;;;;;;5017936;28;19931;-71
2022/11/10 09:07:25;;;;;;;;;;;9.10;99.90;;;;;;5009735;28;20079;-70
2022/11/10 09:10:10;;;;;;;;;;;9.10;99.90;;;;;;5013431;28;20061;-70
2022/11/10 09:12:58;;;;;;;;;;;9.10;99.90;;;;;;5017678;28;19976;-70
2022/11/10 09:15:44;;;;;;;;;;;9.20;99.90;;;;;;5014189;28;19935;-70
2022/11/10 09:18:30;;;;;;;;;;;9.10;99.90;;;;;;5011909;28;19940;-70
2022/11/10 09:21:16;;;;;;;;;;;9.20;99.90;;;;;;5007761;28;19932;-70
2022/11/10 09:24:02;;;;;;;;;;;9.20;99.90;;;;;;5014379;28;20295;-71
2022/11/10 09:26:47;;;;;;;;;;;9.10;99.90;;;;;;5012790;28;20390;-70
2022/11/10 09:29:32;;;;;;;;;;;9.20;99.90;;;;;;5017603;28;21317;-70
2022/11/10 09:32:18;;;;;;;;;;;9.20;99.90;;;;;;5014320;28;19940;-70
2022/11/10 09:35:05;;;;;;;;;;;9.20;99.90;;;;;;5018163;28;20027;-70
2022/11/10 09:37:51;;;;;;;;;;;9.20;99.90;;;;;;5013206;28;19932;-71
2022/11/10 09:40:41;;;;;;;;;;;9.20;99.90;;;;;;5015212;28;19940;-69
2022/11/10 09:43:30;;;;;;;;;;;9.20;99.90;;;;;;5016693;28;19932;-70
2022/11/10 09:46:17;;;;;;;;;;;9.20;99.90;;;;;;5013663;28;19940;-71
2022/11/10 09:49:04;;;;;;;;;;;9.20;99.90;;;;;;5013314;28;19936;-70
2022/11/10 09:51:53;;;;;;;;;;;9.20;99.90;;;;;;5013079;28;20091;-71
2022/11/10 09:54:40;;;;;;;;;;;9.20;99.90;;;;;;5012987;28;20106;-71
2022/11/10 09:57:26;;;;;;;;;;;9.20;99.90;;;;;;5010008;28;19936;-71
2022/11/10 10:00:15;;;;;;;;;;;9.20;99.90;;;;;;5006681;28;20173;-74
2022/11/10 10:03:02;;;;;;;;;;;9.20;99.90;;;;;;5011291;28;19979;-70
2022/11/10 10:05:52;;;;;;;;;;;9.20;99.90;;;;;;5017166;28;19940;-69
2022/11/10 10:08:44;;;;;;;;;;;9.20;99.90;;;;;;5016265;28;20542;-71
2022/11/10 10:11:36;;;;;;;;;;;9.20;99.90;;;;;;5014903;28;19936;-71
2022/11/10 10:14:28;;;;;;;;;;;9.20;99.90;;;;;;5017104;28;20407;-72
2022/11/10 10:17:17;;;;;;;;;;;9.20;99.90;;;;;;5015302;28;19999;-72
2022/11/10 10:20:07;;;;;;;;;;;9.20;99.90;;;;;;5012968;28;20068;-71
2022/11/10 10:22:59;;;;;;;;;;;9.20;99.90;;;;;;5013974;28;20225;-72
2022/11/10 10:25:46;;;;;;;;;;;9.30;99.90;;;;;;5016777;28;19936;-72
2022/11/10 10:28:35;;;;;;;;;;;9.30;99.90;;;;;;5010201;28;19979;-71
2022/11/10 10:31:22;;;;;;;;;;;9.30;99.90;;;;;;5010298;28;20012;-72
2022/11/10 10:34:12;;;;;;;;;;;9.30;99.90;;;;;;5013732;28;19995;-72
2022/11/10 10:36:57;;;;;;;;;;;9.30;99.90;;;;;;5008170;28;20930;-71
2022/11/10 10:39:44;;;;;;;;;;;9.30;99.90;;;;;;5013361;28;19937;-72
2022/11/10 10:42:32;;;;;;;;;;;9.30;99.90;;;;;;5014690;28;19941;-72
2022/11/10 10:45:19;;;;;;;;;;;9.30;99.90;;;;;;5009278;28;20438;-71
2022/11/10 10:48:22;;;;;;;;;;;9.40;99.90;;;;;;5019844;28;19936;-71
2022/11/10 10:51:08;;;;;;;;;;;9.40;99.90;;;;;;5015396;28;20400;-70
2022/11/10 10:53:53;;;;;;;;;;;9.40;99.90;;;;;;5016507;28;20024;-70
2022/11/10 10:56:38;;;;;;;;;;;9.40;99.90;;;;;;5018606;28;19932;-70
2022/11/10 10:59:25;;;;;;;;;;;9.40;99.90;;;;;;5019930;28;19991;-70
2022/11/10 11:02:22;;;;;;;;;;;9.40;99.90;;;;;;5013613;28;19987;-69
2022/11/10 11:05:12;;;;;;;;;;;9.40;99.90;;;;;;5012551;28;19933;-72
2022/11/10 11:07:57;;;;;;;;;;;9.40;99.90;;;;;;5024212;28;20137;-70
2022/11/10 11:10:44;;;;;;;;;;;9.40;99.90;;;;;;5021590;28;19931;-70
2022/11/10 11:13:30;;;;;;;;;;;9.50;99.90;;;;;;5017375;28;19935;-72
2022/11/10 11:16:16;;;;;;;;;;;9.40;99.90;;;;;;5014043;28;20318;-72
2022/11/10 11:19:01;;;;;;;;;;;9.40;99.90;;;;;;5014221;28;19935;-72
2022/11/10 11:22:04;;;;;;;;;;;9.40;99.90;;;;;;5013580;28;19936;-72
2022/11/10 11:24:53;;;;;;;;;;;9.40;99.90;;;;;;5014818;28;19932;-70
2022/11/10 11:27:41;;;;;;;;;;;9.50;99.90;;;;;;5015130;28;19933;-71
2022/11/10 11:30:31;;;;;;;;;;;9.50;99.90;;;;;;5016381;28;19935;-72
2022/11/10 11:33:23;;;;;;;;;;;9.50;99.90;;;;;;5017677;28;20457;-72
2022/11/10 11:36:14;;;;;;;;;;;9.50;99.90;;;;;;5013034;28;20603;-74
2022/11/10 11:39:04;;;;;;;;;;;9.60;99.90;;;;;;5008695;28;19944;-71
2022/11/10 11:41:53;;;;;;;;;;;9.60;99.90;;;;;;5018113;28;20299;-71
2022/11/10 11:44:45;;;;;;;;;;;9.60;99.90;;;;;;5018505;28;19940;-73
2022/11/10 11:47:43;;;;;;;;;;;9.60;99.90;;;;;;5014714;28;19931;-71
2022/11/10 11:50:32;;;;;;;;;;;9.60;99.90;;;;;;5017710;28;20299;-71
2022/11/10 11:53:25;;;;;;;;;;;9.60;99.90;;;;;;5020738;28;19935;-71
2022/11/10 11:56:18;;;;;;;;;;;9.60;99.90;;;;;;5020767;28;19936;-72
2022/11/10 11:59:24;;;;;;;;;;;9.70;99.90;;;;;;5017264;28;19944;-72
2022/11/10 12:02:23;;;;;;;;;;;9.70;99.90;;;;;;5011620;28;19940;-71
2022/11/10 12:05:17;;;;;;;;;;;9.70;99.90;;;;;;5018482;28;19933;-71
2022/11/10 12:08:09;;;;;;;;;;;9.70;99.90;;;;;;5011926;28;19940;-71
2022/11/10 12:10:59;;;;;;;;;;;9.80;99.90;;;;;;5017920;28;20442;-71
2022/11/10 12:13:50;;;;;;;;;;;9.80;99.90;;;;;;5018145;28;19932;-71
2022/11/10 12:16:35;;;;;;;;;;;9.80;99.90;;;;;;5014955;28;19971;-73
2022/11/10 12:19:24;;;;;;;;;;;9.80;99.90;;;;;;5016670;28;20406;-73
2022/11/10 12:22:12;;;;;;;;;;;9.90;99.90;;;;;;5019552;28;19932;-73
2022/11/10 12:25:05;;;;;;;;;;;9.90;99.90;;;;;;5019701;28;20033;-73
2022/11/10 12:27:54;;;;;;;;;;;9.90;99.90;;;;;;5017088;28;19936;-73
2022/11/10 12:30:40;;;;;;;;;;;9.90;99.90;;;;;;5011810;28;20052;-73
2022/11/10 12:33:29;;;;;;;;;;;10.00;99.90;;;;;;5014887;28;19940;-73
2022/11/10 12:36:16;;;;;;;;;;;10.00;99.90;;;;;;5017797;28;20417;-74
2022/11/10 12:39:04;;;;;;;;;;;10.10;99.90;;;;;;5020805;28;20521;-73
2022/11/10 12:41:54;;;;;;;;;;;10.20;99.90;;;;;;5017450;28;19936;-73
2022/11/10 12:44:43;;;;;;;;;;;10.20;99.90;;;;;;5017210;28;19962;-73
2022/11/10 12:47:31;;;;;;;;;;;10.30;99.90;;;;;;5026277;28;19931;-73
2022/11/10 12:50:24;;;;;;;;;;;10.30;99.90;;;;;;5014448;28;19987;-73
2022/11/10 12:53:13;;;;;;;;;;;10.40;99.90;;;;;;5015429;28;19931;-73
2022/11/10 12:56:00;;;;;;;;;;;10.40;99.90;;;;;;5020606;28;20438;-73
2022/11/10 12:58:47;;;;;;;;;;;10.40;99.90;;;;;;5016652;28;20437;-73
2022/11/10 13:01:32;;;;;;;;;;;10.50;99.90;;;;;;5019801;28;19947;-73
2022/11/10 13:04:18;;;;;;;;;;;10.50;99.90;;;;;;5013938;28;19937;-73
2022/11/10 13:07:05;;;;;;;;;;;10.50;99.90;;;;;;5008713;28;20431;-73
2022/11/10 13:09:51;;;;;;;;;;;10.60;99.90;;;;;;5017463;28;20703;-73
2022/11/10 13:12:36;;;;;;;;;;;10.60;99.90;;;;;;5019803;28;20070;-73
2022/11/10 13:15:40;;;;;;;;;;;10.60;99.90;;;;;;5016706;28;19933;-73
2022/11/10 13:18:59;;;;;;;;;;;10.70;99.90;;;;;;5017117;28;19932;-73
2022/11/10 13:22:05;;;;;;;;;;;10.80;99.90;;;;;;5018436;28;19971;-73
2022/11/10 13:24:50;;;;;;;;;;;10.70;99.90;;;;;;5012179;28;19944;-73
2022/11/10 13:27:52;;;;;;;;;;;10.80;99.90;;;;;;5019745;28;20383;-73
2022/11/10 13:30:39;;;;;;;;;;;10.90;99.90;;;;;;5016539;28;19933;-73
2022/11/10 13:33:35;;;;;;;;;;;10.80;99.90;;;;;;5017907;28;19932;-73
2022/11/10 13:36:36;;;;;;;;;;;10.90;99.90;;;;;;5013757;28;19932;-73
2022/11/10 13:39:26;;;;;;;;;;;10.90;99.90;;;;;;5015200;28;19936;-73
2022/11/10 13:42:17;;;;;;;;;;;10.90;99.90;;;;;;5018574;28;19936;-73
2022/11/10 13:45:17;;;;;;;;;;;11.00;99.90;;;;;;5015013;28;20075;-73
2022/11/10 13:48:07;;;;;;;;;;;11.00;99.90;;;;;;5016246;28;19932;-73
2022/11/10 13:50:58;;;;;;;;;;;11.00;99.90;;;;;;5019731;28;19936;-73
2022/11/10 13:53:48;;;;;;;;;;;11.00;99.90;;;;;;5016988;28;19974;-73
2022/11/10 13:56:43;;;;;;;;;;;11.00;99.90;;;;;;5014380;28;20365;-73
2022/11/10 13:59:30;;;;;;;;;;;11.00;99.90;;;;;;5014738;28;20033;-73
2022/11/10 14:02:35;;;;;;;;;;;11.00;99.90;;;;;;5015493;28;19936;-73
2022/11/10 14:05:40;;;;;;;;;;;11.10;99.90;;;;;;5021715;28;19933;-72
2022/11/10 14:08:28;;;;;;;;;;;11.10;99.90;;;;;;5008199;28;19932;-73
2022/11/10 14:11:16;;;;;;;;;;;11.10;99.90;;;;;;5020061;28;19932;-72
2022/11/10 14:14:10;;;;;;;;;;;11.10;99.90;;;;;;5011748;28;19932;-72
2022/11/10 14:16:55;;;;;;;;;;;11.20;99.90;;;;;;5016075;28;20421;-75
2022/11/10 14:19:42;;;;;;;;;;;11.20;99.90;;;;;;5012230;28;19932;-72
2022/11/10 14:22:33;;;;;;;;;;;11.20;99.90;;;;;;5020626;28;19979;-72
2022/11/10 14:25:20;;;;;;;;;;;11.20;99.90;;;;;;5017249;28;19936;-72
2022/11/10 14:28:18;;;;;;;;;;;11.20;99.90;;;;;;5013132;28;19932;-78
2022/11/10 14:31:05;;;;;;;;;;;11.10;99.90;;;;;;5016007;28;20307;-73
2022/11/10 14:33:54;;;;;;;;;;;11.20;99.90;;;;;;5019796;28;19932;-73
2022/11/10 14:36:40;;;;;;;;;;;11.20;99.90;;;;;;5012831;28;19940;-73
2022/11/10 14:39:28;;;;;;;;;;;11.20;99.90;;;;;;5017971;28;19932;-73
2022/11/10 14:42:14;;;;;;;;;;;11.20;99.90;;;;;;5010642;28;19991;-73
2022/11/10 14:45:07;;;;;;;;;;;11.20;99.90;;;;;;5011461;28;19940;-71
2022/11/10 14:47:55;;;;;;;;;;;11.20;99.90;;;;;;5022858;28;19931;-73
2022/11/10 14:50:40;;;;;;;;;;;11.20;99.90;;;;;;5017585;28;19982;-71
2022/11/10 14:53:29;;;;;;;;;;;11.20;99.90;;;;;;5011821;28;20349;-71
2022/11/10 14:56:15;;;;;;;;;;;11.20;99.90;;;;;;5014546;28;19944;-71
2022/11/10 14:59:01;;;;;;;;;;;11.20;99.90;;;;;;5020522;28;19948;-71
2022/11/10 15:01:49;;;;;;;;;;;11.20;99.90;;;;;;5016948;28;20059;-73
2022/11/10 15:04:36;;;;;;;;;;;11.20;99.90;;;;;;5006723;28;19935;-73
2022/11/10 15:07:21;;;;;;;;;;;11.20;99.90;;;;;;5010035;28;20410;-73
2022/11/10 15:10:14;;;;;;;;;;;11.20;99.90;;;;;;5013901;28;20602;-73
2022/11/10 15:13:01;;;;;;;;;;;11.20;99.90;;;;;;5009875;28;20409;-71
2022/11/10 15:15:46;;;;;;;;;;;11.20;99.90;;;;;;5018415;28;19937;-78
2022/11/10 15:18:32;;;;;;;;;;;11.20;99.90;;;;;;5020319;28;19933;-74
2022/11/10 15:21:19;;;;;;;;;;;11.30;99.90;;;;;;5014872;28;19932;-77
2022/11/10 15:24:05;;;;;;;;;;;11.20;99.90;;;;;;5016784;28;19978;-72
2022/11/10 15:26:51;;;;;;;;;;;11.20;99.90;;;;;;5015889;28;20010;-72
2022/11/10 15:29:36;;;;;;;;;;;11.30;99.90;;;;;;5019017;28;20311;-72
2022/11/10 15:32:23;;;;;;;;;;;11.20;99.90;;;;;;5013236;28;20764;-72
2022/11/10 15:35:10;;;;;;;;;;;11.20;99.90;;;;;;5021638;28;20296;-72
2022/11/10 15:38:00;;;;;;;;;;;11.30;99.90;;;;;;5013104;28;19932;-72
2022/11/10 15:40:47;;;;;;;;;;;11.20;99.90;;;;;;5014468;28;19948;-72
2022/11/10 15:43:32;;;;;;;;;;;11.20;99.90;;;;;;5021347;28;19936;-72
2022/11/10 15:46:19;;;;;;;;;;;11.20;99.90;;;;;;5011069;28;20055;-72
2022/11/10 15:49:09;;;;;;;;;;;11.20;99.90;;;;;;5017073;28;19979;-72
2022/11/10 15:51:56;;;;;;;;;;;11.20;99.90;;;;;;5013974;28;19947;-72
2022/11/10 15:54:43;;;;;;;;;;;11.20;99.90;;;;;;5017349;28;20019;-72
2022/11/10 15:57:28;;;;;;;;;;;11.20;99.90;;;;;;5008630;28;19937;-72
2022/11/10 16:00:14;;;;;;;;;;;11.20;99.90;;;;;;5015720;28;19983;-72
2022/11/10 16:02:59;;;;;;;;;;;11.20;99.90;;;;;;5005511;28;20340;-76
2022/11/10 16:05:45;;;;;;;;;;;11.20;99.90;;;;;;5019370;28;19931;-77
2022/11/10 16:08:31;;;;;;;;;;;11.20;99.90;;;;;;5027744;28;19932;-75
2022/11/10 16:11:21;;;;;;;;;;;11.20;99.90;;;;;;5029901;28;19947;-73
2022/11/10 16:14:10;;;;;;;;;;;11.10;99.90;;;;;;5020392;28;20456;-74
2022/11/10 16:16:55;;;;;;;;;;;11.10;99.90;;;;;;5019746;28;19936;-79
2022/11/10 16:19:40;;;;;;;;;;;11.10;99.90;;;;;;5016230;28;19948;-73
2022/11/10 16:22:25;;;;;;;;;;;11.20;99.90;;;;;;5016449;28;20007;-73
2022/11/10 16:25:12;;;;;;;;;;;11.10;99.90;;;;;;5017792;28;19940;-75
2022/11/10 16:28:01;;;;;;;;;;;11.10;99.90;;;;;;5018329;28;20372;-71
2022/11/10 16:30:46;;;;;;;;;;;11.10;99.90;;;;;;5012716;28;19939;-71
2022/11/10 16:33:32;;;;;;;;;;;11.10;99.90;;;;;;5014257;28;20448;-77